Airfield :
LOGIN :

Register | Disclaimer

   EN    FR    IT 

 










Legend :    VFR   Marginal VFR   IFR   Intensive IFR   Very Intensive IFR
Visi :
Ceiling :
>= 8 km
>= 3000ft
5 to 8 km
1000 to 3000 ft
1500m to 5 km
500 to 1000 ft
800 to 1500m
200 to 500 ft
< 800m
< 200 ft
Symbols :   Thunderstorms  Fog  Heavy snow  Heavy precipitations  Wind > 20 kt
SIGMETs :     Misc.  Thunderstorms  Icing  Turbulence  Mountain Waves  Volcanic Ashes






- Airport Elevation : 405 ft
- IATA code : SUJ


LRSM - Satu Mare

CURRENT METAR :
  • 200000Z AUTO 09002KT 9999 NCD 02/00 Q1011

EXPIRED METARs :
  • 192330Z AUTO 09003KT 9999 NCD 02/00 Q1011
  • 192300Z AUTO 10003KT 9999 NCD 03/01 Q1011
  • 192230Z AUTO 12003KT 090V150 9999 NCD 03/00 Q1011
  • 192200Z AUTO 10005KT 9999 NCD 03/00 Q1011
  • 192130Z AUTO 19004KT 150V210 9999 NCD 05/01 Q1011
  • 192100Z AUTO 18003KT 9999 NCD 05/01 Q1011
  • 192030Z AUTO 17004KT 9999 NCD 05/01 Q1011
  • 192000Z AUTO 18003KT 9999 NCD 05/01 Q1011
  • 191930Z AUTO 17004KT 9999 NCD 05/01 Q1011

Expired Forecast.



MET'MAP, your aeronautical weather chart ! - Copyright ORBIFLY December 2007 - Disclaimer

ORBIFLY MET'MAP TEAM :

Programming & Development : Alexandra Zaïnal
Original concept : Baudouin d'Aumeries
Technical & hardware support : Manuel Goepfert
Assistance : Marc-Olivier Méhu




SOURCES & CREDITS :

   NOAA